createdAt,value
2022-11-24T00:01:05.623Z,7.93
2022-11-24T00:03:32.305Z,8.01
2022-11-24T00:06:10.770Z,8.03
2022-11-24T00:08:38.248Z,8.06
2022-11-24T00:11:06.401Z,8.08
2022-11-24T00:13:33.691Z,8.10
2022-11-24T00:16:15.483Z,8.11
2022-11-24T00:18:43.348Z,8.16
2022-11-24T00:21:10.045Z,8.13
2022-11-24T00:23:36.895Z,8.12
2022-11-24T00:26:05.706Z,8.07
2022-11-24T00:28:33.627Z,8.07
2022-11-24T00:31:00.600Z,8.06
2022-11-24T00:33:27.191Z,8.06
2022-11-24T00:35:57.730Z,8.07
2022-11-24T00:38:24.577Z,8.08
2022-11-24T00:40:52.078Z,8.12
2022-11-24T00:43:19.094Z,8.15
2022-11-24T00:45:45.555Z,8.18
2022-11-24T00:48:12.155Z,8.21
2022-11-24T00:50:38.743Z,8.20
2022-11-24T00:53:05.239Z,8.25
2022-11-24T00:55:31.715Z,8.28
2022-11-24T00:57:58.219Z,8.35
2022-11-24T01:00:24.750Z,8.34
2022-11-24T01:02:52.428Z,8.34
2022-11-24T01:05:19.191Z,8.37
2022-11-24T01:07:46.859Z,8.39
2022-11-24T01:10:13.362Z,8.37
2022-11-24T01:12:39.815Z,8.38
2022-11-24T01:15:06.691Z,8.43
2022-11-24T01:17:33.165Z,8.42
2022-11-24T01:19:59.623Z,8.39
2022-11-24T01:22:27.337Z,8.36
2022-11-24T01:24:53.799Z,8.31
2022-11-24T01:27:20.254Z,8.29
2022-11-24T01:29:46.731Z,8.24
2022-11-24T01:32:13.199Z,8.19
2022-11-24T01:34:39.682Z,8.17
2022-11-24T01:37:06.354Z,8.13
2022-11-24T01:39:33.047Z,8.12
2022-11-24T01:42:02.665Z,8.15
2022-11-24T01:44:30.602Z,8.22
2022-11-24T01:47:36.369Z,8.26
2022-11-24T01:50:03.733Z,8.33
2022-11-24T01:52:38.317Z,8.34
2022-11-24T01:55:11.260Z,8.39
2022-11-24T01:57:44.100Z,8.39
2022-11-24T02:00:13.106Z,8.44
2022-11-24T02:02:47.413Z,8.42
2022-11-24T02:05:21.759Z,8.39
2022-11-24T02:07:48.648Z,8.34
2022-11-24T02:10:16.938Z,8.30
2022-11-24T02:12:46.492Z,8.27
2022-11-24T02:15:17.170Z,8.26
2022-11-24T02:17:44.078Z,8.19
2022-11-24T02:20:11.706Z,8.19
2022-11-24T02:22:47.396Z,8.19
2022-11-24T02:25:25.567Z,8.19
2022-11-24T02:27:54.181Z,8.20
2022-11-24T02:30:20.887Z,8.19
2022-11-24T02:32:47.400Z,8.23
2022-11-24T02:35:14.362Z,8.24
2022-11-24T02:37:40.864Z,8.23
2022-11-24T02:40:08.133Z,8.26
2022-11-24T02:42:41.790Z,8.28
2022-11-24T02:45:09.334Z,8.27
2022-11-24T02:47:35.783Z,8.25
2022-11-24T02:50:02.286Z,8.23
2022-11-24T02:52:28.726Z,8.19
2022-11-24T02:54:55.198Z,8.17
2022-11-24T02:57:22.620Z,8.18
2022-11-24T02:59:49.100Z,8.16
2022-11-24T03:02:15.590Z,8.18
2022-11-24T03:04:42.095Z,8.19
2022-11-24T03:07:09.621Z,8.20
2022-11-24T03:09:36.152Z,8.22
2022-11-24T03:12:02.640Z,8.22
2022-11-24T03:14:29.083Z,8.26
2022-11-24T03:16:55.551Z,8.32
2022-11-24T03:19:21.999Z,8.36
2022-11-24T03:21:48.522Z,8.35
2022-11-24T03:24:15.015Z,8.30
2022-11-24T03:26:42.027Z,8.37
2022-11-24T03:29:09.010Z,8.36
2022-11-24T03:31:35.606Z,8.33
2022-11-24T03:34:02.200Z,8.38
2022-11-24T03:36:28.653Z,8.40
2022-11-24T03:38:55.091Z,8.45
2022-11-24T03:41:21.702Z,8.47
2022-11-24T03:43:48.162Z,8.46
2022-11-24T03:46:14.712Z,8.40
2022-11-24T03:48:41.473Z,8.37
2022-11-24T03:51:08.150Z,8.28
2022-11-24T03:53:34.744Z,8.24
2022-11-24T03:56:01.936Z,8.26
2022-11-24T03:58:28.911Z,8.28
2022-11-24T04:00:55.999Z,8.28
2022-11-24T04:03:23.204Z,8.36
2022-11-24T04:05:49.848Z,8.38
2022-11-24T04:08:17.011Z,8.42
2022-11-24T04:10:43.659Z,8.42
2022-11-24T04:13:12.891Z,8.43
2022-11-24T04:15:40.794Z,8.51
2022-11-24T04:18:08.139Z,8.53
2022-11-24T04:20:34.751Z,8.53
2022-11-24T04:23:01.504Z,8.55
2022-11-24T04:25:28.340Z,8.57
2022-11-24T04:27:55.510Z,8.59
2022-11-24T04:30:23.878Z,8.59
2022-11-24T04:32:50.651Z,8.59
2022-11-24T04:35:17.135Z,8.57
2022-11-24T04:37:43.574Z,8.56
2022-11-24T04:40:11.010Z,8.59
2022-11-24T04:42:37.487Z,8.58
2022-11-24T04:45:05.732Z,8.55
2022-11-24T04:47:32.154Z,8.56
2022-11-24T04:49:58.644Z,8.55
2022-11-24T04:52:25.473Z,8.55
2022-11-24T04:54:52.167Z,8.53
2022-11-24T04:57:26.115Z,8.55
2022-11-24T04:59:53.224Z,8.51
2022-11-24T05:02:19.843Z,8.50
2022-11-24T05:04:46.827Z,8.52
2022-11-24T05:07:18.396Z,8.46
2022-11-24T05:10:04.602Z,8.45
2022-11-24T05:12:31.347Z,8.46
2022-11-24T05:14:59.174Z,8.51
2022-11-24T05:17:32.141Z,8.53
2022-11-24T05:19:58.915Z,8.52
2022-11-24T05:22:26.002Z,8.52
2022-11-24T05:24:52.551Z,8.54
2022-11-24T05:27:19.062Z,8.56
2022-11-24T05:29:45.597Z,8.60
2022-11-24T05:32:12.073Z,8.60
2022-11-24T05:34:38.642Z,8.60
2022-11-24T05:37:05.094Z,8.60
2022-11-24T05:39:37.884Z,8.59
2022-11-24T05:42:25.730Z,8.59
2022-11-24T05:44:52.641Z,8.59
2022-11-24T05:47:19.143Z,8.60
2022-11-24T05:49:45.566Z,8.57
2022-11-24T05:52:12.215Z,8.54
2022-11-24T05:54:38.652Z,8.56
2022-11-24T05:57:05.084Z,8.55
2022-11-24T05:59:31.596Z,8.59
2022-11-24T06:01:58.094Z,8.62
2022-11-24T06:04:24.582Z,8.63
2022-11-24T06:06:51.005Z,8.63
2022-11-24T06:09:17.515Z,8.64
2022-11-24T06:11:43.996Z,8.63
2022-11-24T06:14:11.475Z,8.66
2022-11-24T06:16:38.629Z,8.70
2022-11-24T06:19:05.248Z,8.67
2022-11-24T06:21:32.137Z,8.68
2022-11-24T06:23:58.755Z,8.55
2022-11-24T06:26:25.189Z,8.46
2022-11-24T06:28:51.636Z,8.41
2022-11-24T06:31:18.589Z,8.32
2022-11-24T06:33:45.237Z,8.33
2022-11-24T06:36:13.431Z,8.32
2022-11-24T06:38:39.891Z,8.31
2022-11-24T06:41:09.455Z,8.28
2022-11-24T06:43:36.032Z,8.23
2022-11-24T06:46:02.691Z,8.19
2022-11-24T06:48:29.378Z,8.29
2022-11-24T06:51:00.318Z,8.24
2022-11-24T06:53:27.055Z,8.27
2022-11-24T06:55:53.596Z,8.18
2022-11-24T06:58:20.032Z,8.27
2022-11-24T07:00:46.510Z,8.28
2022-11-24T07:03:16.033Z,8.28
2022-11-24T07:05:43.826Z,8.28
2022-11-24T07:08:16.180Z,8.26
2022-11-24T07:10:44.162Z,8.27
2022-11-24T07:13:10.699Z,8.28
2022-11-24T07:15:37.132Z,8.25
2022-11-24T07:18:03.666Z,8.14
2022-11-24T07:20:30.139Z,8.22
2022-11-24T07:22:57.380Z,8.19
2022-11-24T07:25:26.915Z,8.19
2022-11-24T07:27:59.943Z,8.19
2022-11-24T07:30:27.251Z,8.18
2022-11-24T07:33:01.079Z,8.16
2022-11-24T07:35:28.143Z,8.15
2022-11-24T07:37:56.290Z,8.18
2022-11-24T07:40:23.316Z,8.19
2022-11-24T07:42:49.848Z,8.23
2022-11-24T07:45:16.374Z,8.23
2022-11-24T07:47:42.827Z,8.25
2022-11-24T07:50:10.275Z,8.26
2022-11-24T07:52:37.400Z,8.27
2022-11-24T07:55:05.038Z,8.27
2022-11-24T07:57:31.445Z,8.26
2022-11-24T07:59:57.968Z,8.25
2022-11-24T08:02:24.480Z,8.27
2022-11-24T08:04:51.276Z,8.25
2022-11-24T08:07:17.712Z,8.27
2022-11-24T08:09:44.158Z,8.27
2022-11-24T08:12:10.600Z,8.28
2022-11-24T08:14:37.243Z,8.28
2022-11-24T08:17:03.848Z,8.28
2022-11-24T08:19:32.130Z,8.25
2022-11-24T08:21:58.519Z,8.25
2022-11-24T08:24:24.932Z,8.24
2022-11-24T08:26:51.322Z,8.27
2022-11-24T08:29:17.791Z,8.28
2022-11-24T08:31:44.302Z,8.29
2022-11-24T08:34:10.800Z,8.33
2022-11-24T08:36:37.231Z,8.32
2022-11-24T08:39:03.646Z,8.35
2022-11-24T08:41:30.615Z,8.38
2022-11-24T08:43:57.323Z,8.44
2022-11-24T08:46:24.142Z,8.47
2022-11-24T08:48:54.070Z,8.52
2022-11-24T08:51:23.600Z,8.54
2022-11-24T08:53:54.726Z,8.56
2022-11-24T08:56:22.312Z,8.61
2022-11-24T08:58:48.851Z,8.62
2022-11-24T09:01:16.662Z,8.64
2022-11-24T09:03:51.275Z,8.64
2022-11-24T09:06:27.132Z,8.66
2022-11-24T09:08:54.207Z,8.66
2022-11-24T09:11:21.382Z,8.72
2022-11-24T09:13:48.232Z,8.75
2022-11-24T09:16:20.862Z,8.78
2022-11-24T09:18:47.782Z,8.83
2022-11-24T09:21:16.426Z,8.86
2022-11-24T09:23:43.187Z,8.87
2022-11-24T09:26:14.731Z,8.91
2022-11-24T09:28:41.579Z,8.93
2022-11-24T09:31:11.186Z,8.96
2022-11-24T09:33:38.836Z,8.99
2022-11-24T09:36:06.034Z,9.01
2022-11-24T09:38:32.992Z,9.01
2022-11-24T09:41:31.748Z,9.02
2022-11-24T09:44:22.489Z,9.06
2022-11-24T09:47:26.659Z,9.06
2022-11-24T09:50:04.331Z,9.10
2022-11-24T09:52:49.029Z,9.17
2022-11-24T09:55:28.817Z,9.18
2022-11-24T09:58:13.606Z,9.20
2022-11-24T10:00:40.410Z,9.20
2022-11-24T10:03:14.892Z,9.24
2022-11-24T10:05:42.056Z,9.22
2022-11-24T10:08:38.321Z,9.24
2022-11-24T10:11:13.869Z,9.21
2022-11-24T10:14:04.820Z,9.22
2022-11-24T10:17:11.131Z,9.30
2022-11-24T10:19:52.352Z,9.36
2022-11-24T10:22:38.379Z,9.34
2022-11-24T10:25:26.559Z,9.35
2022-11-24T10:28:00.091Z,9.38
2022-11-24T10:30:27.033Z,9.42
2022-11-24T10:32:58.042Z,9.45
2022-11-24T10:35:30.790Z,9.46
2022-11-24T10:38:29.594Z,9.54
2022-11-24T10:41:03.330Z,9.54
2022-11-24T10:43:29.797Z,9.58
2022-11-24T10:46:09.351Z,9.61
2022-11-24T10:48:47.009Z,9.65
2022-11-24T10:51:41.464Z,9.63
2022-11-24T10:54:20.173Z,9.66
2022-11-24T10:56:47.989Z,9.65
2022-11-24T10:59:21.388Z,9.70
2022-11-24T11:01:47.925Z,9.73
2022-11-24T11:04:20.454Z,9.78
2022-11-24T11:06:47.034Z,9.81
2022-11-24T11:09:13.395Z,9.86
2022-11-24T11:11:40.004Z,9.80
2022-11-24T11:14:07.868Z,9.79
2022-11-24T11:16:42.526Z,9.82
2022-11-24T11:19:54.266Z,9.80
2022-11-24T11:22:25.041Z,9.79
2022-11-24T11:25:04.106Z,9.77
2022-11-24T11:27:30.522Z,9.75
2022-11-24T11:35:50.347Z,9.86
2022-11-24T11:38:17.067Z,9.91
2022-11-24T11:40:43.821Z,9.94
2022-11-24T11:43:19.157Z,9.94
2022-11-24T11:45:46.248Z,9.98
2022-11-24T11:48:27.582Z,9.99
2022-11-24T11:51:22.253Z,10.06
2022-11-24T11:53:55.228Z,10.11
2022-11-24T11:56:28.466Z,10.17
2022-11-24T11:59:12.715Z,10.20
2022-11-24T12:01:57.394Z,10.15
2022-11-24T12:04:57.996Z,10.15
2022-11-24T12:07:34.660Z,10.11
2022-11-24T12:10:07.232Z,10.09
2022-11-24T12:13:03.576Z,10.03
2022-11-24T12:15:40.984Z,10.03
2022-11-24T12:18:57.642Z,10.00
2022-11-24T12:21:26.861Z,10.07
2022-11-24T12:24:17.945Z,10.11
2022-11-24T12:27:06.149Z,10.22
2022-11-24T12:30:00.370Z,10.28
2022-11-24T12:32:37.220Z,10.38
2022-11-24T12:35:23.888Z,10.44
2022-11-24T12:38:19.462Z,10.52
2022-11-24T12:41:39.936Z,10.49
2022-11-24T12:43:53.452Z,10.55
2022-11-24T12:46:29.186Z,10.61
2022-11-24T12:49:31.627Z,10.63
2022-11-24T12:52:03.604Z,10.61
2022-11-24T12:54:36.945Z,10.69
2022-11-24T12:57:12.273Z,10.75
2022-11-24T12:59:46.179Z,10.85
2022-11-24T13:02:18.549Z,10.87
2022-11-24T13:04:52.469Z,10.84
2022-11-24T13:07:22.601Z,10.85
2022-11-24T13:10:54.950Z,10.81
2022-11-24T13:13:15.429Z,10.73
2022-11-24T13:16:20.559Z,10.67
2022-11-24T13:18:47.317Z,10.60
2022-11-24T13:21:51.553Z,10.55
2022-11-24T13:24:19.139Z,10.54
2022-11-24T13:27:16.775Z,10.51
2022-11-24T13:29:47.936Z,10.45
2022-11-24T13:32:21.004Z,10.51
2022-11-24T13:34:49.616Z,10.54
2022-11-24T13:37:28.730Z,10.51
2022-11-24T13:40:14.179Z,10.49
2022-11-24T13:43:19.207Z,10.44
2022-11-24T13:45:45.608Z,10.47
2022-11-24T13:48:21.989Z,10.55
2022-11-24T13:50:53.166Z,10.63
2022-11-24T13:53:36.325Z,10.72
2022-11-24T13:56:02.697Z,10.76
2022-11-24T13:58:38.837Z,10.85
2022-11-24T14:01:22.151Z,10.91
2022-11-24T14:04:42.931Z,10.91
2022-11-24T14:07:07.925Z,10.78
2022-11-24T14:09:40.720Z,10.75
2022-11-24T14:12:24.169Z,10.69
2022-11-24T14:14:52.314Z,10.64
2022-11-24T14:17:22.562Z,10.59
2022-11-24T14:19:51.479Z,10.54
2022-11-24T14:22:20.735Z,10.53
2022-11-24T14:24:53.238Z,10.52
2022-11-24T14:27:26.121Z,10.48
2022-11-24T14:29:54.716Z,10.41
2022-11-24T14:32:21.926Z,10.37
2022-11-24T14:34:48.474Z,10.32
2022-11-24T14:37:14.941Z,10.23
2022-11-24T14:39:42.208Z,10.12
2022-11-24T14:42:27.479Z,10.03
2022-11-24T14:45:02.787Z,9.96
2022-11-24T14:47:36.282Z,9.94
2022-11-24T14:50:10.313Z,9.90
2022-11-24T14:52:43.886Z,9.85
2022-11-24T14:55:24.349Z,9.81
2022-11-24T14:57:50.898Z,9.77
2022-11-24T15:00:30.821Z,9.72
2022-11-24T15:03:17.464Z,9.69
2022-11-24T15:05:55.544Z,9.64
2022-11-24T15:08:24.168Z,9.59
2022-11-24T15:11:00.302Z,9.50
2022-11-24T15:13:27.473Z,9.43
2022-11-24T15:16:06.651Z,9.36
2022-11-24T15:18:41.909Z,9.33
2022-11-24T15:21:11.691Z,9.27
2022-11-24T15:23:41.889Z,9.24
2022-11-24T15:26:11.025Z,9.19
2022-11-24T15:28:37.573Z,9.13
2022-11-24T15:31:11.393Z,9.13
2022-11-24T15:33:38.326Z,9.12
2022-11-24T15:36:05.031Z,9.09
2022-11-24T15:38:31.504Z,9.02
2022-11-24T15:40:59.567Z,9.01
2022-11-24T15:43:34.605Z,8.96
2022-11-24T15:46:02.189Z,8.90
2022-11-24T15:48:29.085Z,8.87
2022-11-24T15:50:56.693Z,8.83
2022-11-24T15:53:39.072Z,8.77
2022-11-24T15:56:07.729Z,8.78
2022-11-24T15:58:34.558Z,8.74
2022-11-24T16:01:01.070Z,8.69
2022-11-24T16:06:22.016Z,8.69
2022-11-24T16:08:50.501Z,8.79
2022-11-24T16:11:16.896Z,8.89
2022-11-24T16:13:46.994Z,8.95
2022-11-24T16:16:18.571Z,8.98
2022-11-24T16:18:45.359Z,8.97
2022-11-24T16:21:11.795Z,8.94
2022-11-24T16:23:38.223Z,8.91
2022-11-24T16:26:05.403Z,8.84
2022-11-24T16:28:32.199Z,8.80
2022-11-24T16:30:58.748Z,8.78
2022-11-24T16:33:25.285Z,8.74
2022-11-24T16:35:51.710Z,8.71
2022-11-24T16:38:19.332Z,8.66
2022-11-24T16:40:54.239Z,8.66
2022-11-24T16:43:20.755Z,8.63
2022-11-24T16:45:54.276Z,8.60
2022-11-24T16:48:20.761Z,8.57
2022-11-24T16:50:47.256Z,8.48
2022-11-24T16:53:13.739Z,8.40
2022-11-24T16:55:40.160Z,8.37
2022-11-24T16:58:06.603Z,8.35
2022-11-24T17:00:33.000Z,8.30
2022-11-24T17:02:59.404Z,8.27
2022-11-24T17:05:25.820Z,8.27
2022-11-24T17:07:52.541Z,8.23
2022-11-24T17:10:19.264Z,8.25
2022-11-24T17:12:45.747Z,8.22
2022-11-24T17:18:23.625Z,8.07
2022-11-24T17:20:45.114Z,7.98
2022-11-24T17:23:11.571Z,7.91
2022-11-24T17:25:37.978Z,7.84
2022-11-24T17:28:04.596Z,7.79
2022-11-24T17:30:31.001Z,7.75
2022-11-24T17:32:57.397Z,7.73
2022-11-24T17:35:23.827Z,7.68
2022-11-24T17:37:50.230Z,7.68
2022-11-24T17:40:34.587Z,7.67
2022-11-24T17:43:01.535Z,7.65
2022-11-24T17:45:28.920Z,7.64
2022-11-24T17:47:56.499Z,7.63
2022-11-24T17:50:26.029Z,7.63
2022-11-24T17:52:53.702Z,7.64
2022-11-24T17:55:20.170Z,7.62
2022-11-24T17:57:46.597Z,7.68
2022-11-24T18:00:13.700Z,7.71
2022-11-24T18:02:40.155Z,7.74
2022-11-24T18:05:06.973Z,7.75
2022-11-24T18:07:35.906Z,7.73
2022-11-24T18:10:02.382Z,7.70
2022-11-24T18:12:28.817Z,7.72
2022-11-24T18:14:55.376Z,7.68
2022-11-24T18:17:21.888Z,7.71
2022-11-24T18:19:48.328Z,7.73
2022-11-24T18:22:14.782Z,7.73
2022-11-24T18:24:44.203Z,7.70
2022-11-24T18:27:11.064Z,7.75
2022-11-24T18:29:38.512Z,7.76
2022-11-24T18:32:06.693Z,7.76
2022-11-24T18:34:33.432Z,7.80
2022-11-24T18:37:00.150Z,7.79
2022-11-24T18:39:28.272Z,7.78
2022-11-24T18:41:54.718Z,7.80
2022-11-24T18:44:21.267Z,7.80
2022-11-24T18:46:48.865Z,7.84
2022-11-24T18:49:15.303Z,7.84
2022-11-24T18:51:41.699Z,7.76
2022-11-24T18:54:08.209Z,7.77
2022-11-24T18:56:34.697Z,7.74
2022-11-24T18:59:01.222Z,7.78
2022-11-24T19:01:28.581Z,7.79
2022-11-24T19:03:57.207Z,7.76
2022-11-24T19:06:28.821Z,7.74
2022-11-24T19:08:55.820Z,7.69
2022-11-24T19:11:28.159Z,7.68
2022-11-24T19:13:55.745Z,7.62
2022-11-24T19:16:22.940Z,7.61
2022-11-24T19:18:53.992Z,7.60
2022-11-24T19:21:21.329Z,7.53
2022-11-24T19:23:47.746Z,7.50
2022-11-24T19:26:14.735Z,7.47
2022-11-24T19:28:41.150Z,7.44
2022-11-24T19:31:10.250Z,7.43
2022-11-24T19:33:36.733Z,7.40
2022-11-24T19:36:22.485Z,7.38
2022-11-24T19:38:51.226Z,7.34
2022-11-24T19:41:21.460Z,7.39
2022-11-24T19:43:48.359Z,7.40
2022-11-24T19:46:18.341Z,7.42
2022-11-24T19:48:54.434Z,7.45
2022-11-24T19:51:23.133Z,7.42
2022-11-24T19:53:49.570Z,7.41
2022-11-24T19:56:21.542Z,7.46
2022-11-24T19:58:49.105Z,7.48
2022-11-24T20:01:21.595Z,7.50
2022-11-24T20:03:58.843Z,7.46
2022-11-24T20:06:28.050Z,7.42
2022-11-24T20:08:54.599Z,7.44
2022-11-24T20:11:21.609Z,7.48
2022-11-24T20:13:49.695Z,7.46
2022-11-24T20:16:18.175Z,7.52
2022-11-24T20:18:46.368Z,7.47
2022-11-24T20:21:19.678Z,7.51
2022-11-24T20:23:52.393Z,7.53
2022-11-24T20:26:20.733Z,7.56
2022-11-24T20:28:47.249Z,7.57
2022-11-24T20:31:20.631Z,7.53
2022-11-24T20:33:47.449Z,7.49
2022-11-24T20:36:18.606Z,7.51
2022-11-24T20:38:46.354Z,7.52
2022-11-24T20:41:18.110Z,7.50
2022-11-24T20:43:45.378Z,7.50
2022-11-24T20:46:14.746Z,7.50
2022-11-24T20:48:41.287Z,7.50
2022-11-24T20:51:23.107Z,7.56
2022-11-24T20:53:51.148Z,7.59
2022-11-24T20:56:23.105Z,7.59
2022-11-24T20:58:52.972Z,7.59
2022-11-24T21:01:21.981Z,7.59
2022-11-24T21:03:53.038Z,7.56
2022-11-24T21:06:19.450Z,7.55
2022-11-24T21:08:45.884Z,7.57
2022-11-24T21:11:13.764Z,7.57
2022-11-24T21:13:42.165Z,7.61
2022-11-24T21:16:12.824Z,7.59
2022-11-24T21:18:39.313Z,7.54
2022-11-24T21:21:05.971Z,7.55
2022-11-24T21:23:32.759Z,7.60
2022-11-24T21:26:05.632Z,7.63
2022-11-24T21:28:33.673Z,7.66
2022-11-24T21:31:04.969Z,7.70
2022-11-24T21:33:31.586Z,7.70
2022-11-24T21:36:05.462Z,7.66
2022-11-24T21:38:31.926Z,7.57
2022-11-24T21:41:06.342Z,7.49
2022-11-24T21:43:33.275Z,7.46
2022-11-24T21:46:05.321Z,7.44
2022-11-24T21:48:32.732Z,7.40
2022-11-24T21:51:03.402Z,7.34
2022-11-24T21:53:31.745Z,7.26
2022-11-24T21:56:00.318Z,7.22
2022-11-24T21:58:27.557Z,7.20
2022-11-24T22:00:54.934Z,7.16
2022-11-24T22:03:21.560Z,7.14
2022-11-24T22:05:58.894Z,7.12
2022-11-24T22:08:27.362Z,7.07
2022-11-24T22:10:54.048Z,7.05
2022-11-24T22:13:20.485Z,7.04
2022-11-24T22:15:46.922Z,7.03
2022-11-24T22:18:13.381Z,7.07
2022-11-24T22:20:39.877Z,7.09
2022-11-24T22:23:06.295Z,7.08
2022-11-24T22:25:33.492Z,7.07
2022-11-24T22:27:59.936Z,7.02
2022-11-24T22:30:26.383Z,7.03
2022-11-24T22:32:53.081Z,7.10
2022-11-24T22:35:19.589Z,7.10
2022-11-24T22:37:46.039Z,7.07
2022-11-24T22:40:12.526Z,7.08
2022-11-24T22:42:38.934Z,7.07
2022-11-24T22:45:05.978Z,7.04
2022-11-24T22:47:32.779Z,6.94
2022-11-24T22:49:59.310Z,6.94
2022-11-24T22:52:25.817Z,6.89
2022-11-24T22:54:52.284Z,6.97
2022-11-24T22:57:18.779Z,6.96
2022-11-24T22:59:45.197Z,6.89
2022-11-24T23:02:11.607Z,6.82
2022-11-24T23:04:38.270Z,6.80
2022-11-24T23:07:04.745Z,6.79
2022-11-24T23:09:31.217Z,6.74
2022-11-24T23:11:57.646Z,6.71
2022-11-24T23:14:24.137Z,6.66
2022-11-24T23:16:50.734Z,6.64
2022-11-24T23:19:17.808Z,6.60
2022-11-24T23:21:44.404Z,6.66
2022-11-24T23:24:11.486Z,6.73
2022-11-24T23:26:39.880Z,6.75
2022-11-24T23:29:07.183Z,6.77
2022-11-24T23:31:33.701Z,6.78
2022-11-24T23:34:02.159Z,6.86
2022-11-24T23:36:29.620Z,6.90
2022-11-24T23:38:56.546Z,6.88
2022-11-24T23:41:25.440Z,6.89
2022-11-24T23:43:52.363Z,6.84
2022-11-24T23:46:20.871Z,6.84
2022-11-24T23:48:48.020Z,6.82
2022-11-24T23:51:18.735Z,6.76
2022-11-24T23:53:45.520Z,6.73
2022-11-24T23:56:14.125Z,6.74
2022-11-24T23:58:40.808Z,6.77
